Terminal Aerodrome Forecast
Issued by NWS

Home | Current Version | Previous Version | Text Only | Print | Product List | Glossary On
Versions: 1 2 3 4 5 6 7 8 9 10 11 12 13 14 15 16 17 18 19 20 21
338
FTUS41 KPHI 131130
TAFMIV
TAF
KMIV 131130Z 1312/1412 30012G20KT P6SM SCT050 BKN070
     FM131400 31018G28KT P6SM SCT050 BKN070
     FM131600 31020G35KT P6SM SCT050
     FM140000 31012G25KT P6SM SCT050
     FM141000 32012KT P6SM SKC=

USA.gov is the U.S. government's official web portal to all federal, state and local government web resources and services.